createdAt,value
2018-01-23T00:01:13.382Z,99255.48
2018-01-23T00:03:40.982Z,99268.77
2018-01-23T00:06:08.522Z,99269.72
2018-01-23T00:08:36.113Z,99270.98
2018-01-23T00:11:03.651Z,99274.64
2018-01-23T00:13:31.192Z,99274.69
2018-01-23T00:15:58.783Z,99274.05
2018-01-23T00:18:26.349Z,99281.92
2018-01-23T00:20:53.878Z,99287.52
2018-01-23T00:23:21.474Z,99285.93
2018-01-23T00:25:49.042Z,99287.95
2018-01-23T00:28:16.578Z,99296.70
2018-01-23T00:30:44.158Z,99293.61
2018-01-23T00:33:11.686Z,99296.52
2018-01-23T00:35:39.218Z,99303.04
2018-01-23T00:38:06.792Z,99308.97
2018-01-23T00:40:34.322Z,99315.41
2018-01-23T00:43:01.851Z,99310.74
2018-01-23T00:45:29.428Z,99315.00
2018-01-23T00:47:56.963Z,99314.89
2018-01-23T00:50:24.498Z,99317.63
2018-01-23T00:52:52.074Z,99325.23
2018-01-23T00:55:19.602Z,99330.63
2018-01-23T00:57:47.134Z,99327.73
2018-01-23T01:00:14.701Z,99328.88
2018-01-23T01:02:42.230Z,99327.41
2018-01-23T01:05:09.775Z,99329.77
2018-01-23T01:07:37.341Z,99329.83
2018-01-23T01:10:04.890Z,99324.41
2018-01-23T01:12:32.424Z,99324.59
2018-01-23T01:14:59.998Z,99320.53
2018-01-23T01:17:27.521Z,99324.79
2018-01-23T01:19:55.045Z,99324.67
2018-01-23T01:22:22.626Z,99321.09
2018-01-23T01:24:50.321Z,99323.16
2018-01-23T01:27:18.003Z,99325.81
2018-01-23T01:29:45.717Z,99322.23
2018-01-23T01:32:13.254Z,99325.12
2018-01-23T01:34:41.046Z,99323.29
2018-01-23T01:37:08.618Z,99319.62
2018-01-23T01:39:36.154Z,99318.67
2018-01-23T01:42:03.710Z,99327.34
2018-01-23T01:44:31.515Z,99329.13
2018-01-23T01:46:59.046Z,99331.62
2018-01-23T01:49:26.654Z,99335.12
2018-01-23T01:51:54.237Z,99343.19
2018-01-23T01:54:21.771Z,99336.80
2018-01-23T01:56:49.314Z,99326.48
2018-01-23T01:59:17.022Z,99325.41
2018-01-23T02:01:44.553Z,99326.98
2018-01-23T02:04:12.150Z,99328.31
2018-01-23T02:06:39.734Z,99334.02
2018-01-23T02:09:07.492Z,99331.11
2018-01-23T02:11:35.212Z,99324.67
2018-01-23T02:14:02.822Z,99336.28
2018-01-23T02:16:30.350Z,99338.72
2018-01-23T02:18:57.874Z,99336.84
2018-01-23T02:21:25.478Z,99341.62
2018-01-23T02:23:53.006Z,99339.63
2018-01-23T02:26:20.599Z,99335.79
2018-01-23T02:28:48.170Z,99343.69
2018-01-23T02:31:15.706Z,99332.03
2018-01-23T02:33:43.264Z,99336.36
2018-01-23T02:36:10.878Z,99331.98
2018-01-23T02:38:38.409Z,99324.20
2018-01-23T02:41:05.937Z,99323.41
2018-01-23T02:43:33.562Z,99328.03
2018-01-23T02:46:01.313Z,99322.63
2018-01-23T02:48:29.048Z,99330.45
2018-01-23T02:50:56.694Z,99329.66
2018-01-23T02:53:24.231Z,99329.97
2018-01-23T02:55:51.830Z,99328.75
2018-01-23T02:58:19.969Z,99323.94
2018-01-23T03:00:47.724Z,99327.29
2018-01-23T03:03:15.392Z,99327.78
2018-01-23T03:05:43.205Z,99328.99
2018-01-23T03:08:10.741Z,99325.88
2018-01-23T03:10:38.439Z,99330.38
2018-01-23T03:13:06.066Z,99330.34
2018-01-23T03:15:33.622Z,99326.57
2018-01-23T03:18:01.190Z,99329.22
2018-01-23T03:20:28.810Z,99330.86
2018-01-23T03:22:56.346Z,99333.30
2018-01-23T03:25:23.951Z,99336.14
2018-01-23T03:27:51.534Z,99342.79
2018-01-23T03:30:19.077Z,99343.27
2018-01-23T03:32:46.757Z,99345.22
2018-01-23T03:35:14.357Z,99347.38
2018-01-23T03:37:41.890Z,99355.73
2018-01-23T03:40:09.559Z,99360.84
2018-01-23T03:42:37.129Z,99363.55
2018-01-23T03:45:04.659Z,99366.16
2018-01-23T03:47:32.196Z,99360.40
2018-01-23T03:49:59.774Z,99365.14
2018-01-23T03:52:27.541Z,99375.61
2018-01-23T03:54:55.128Z,99368.86
2018-01-23T03:57:22.702Z,99377.73
2018-01-23T03:59:50.230Z,99375.53
2018-01-23T04:02:17.782Z,99389.40
2018-01-23T04:04:45.434Z,99390.22
2018-01-23T04:07:12.970Z,99397.66
2018-01-23T04:09:40.510Z,99396.57
2018-01-23T04:12:08.184Z,99402.52
2018-01-23T04:14:35.903Z,99404.19
2018-01-23T04:17:03.454Z,99406.54
2018-01-23T04:19:31.029Z,99405.20
2018-01-23T04:21:58.704Z,99408.23
2018-01-23T04:24:26.505Z,99407.64
2018-01-23T04:26:54.097Z,99408.02
2018-01-23T04:29:21.646Z,99412.39
2018-01-23T04:31:49.428Z,99417.34
2018-01-23T04:34:17.250Z,99421.00
2018-01-23T04:36:44.847Z,99432.11
2018-01-23T04:39:12.382Z,99429.83
2018-01-23T04:41:39.965Z,99430.50
2018-01-23T04:44:07.622Z,99434.10
2018-01-23T04:46:35.158Z,99431.38
2018-01-23T04:49:03.018Z,99424.58
2018-01-23T04:51:30.547Z,99430.53
2018-01-23T04:53:58.288Z,99437.27
2018-01-23T04:56:25.870Z,99430.11
2018-01-23T04:58:53.402Z,99432.50
2018-01-23T05:01:21.155Z,99435.41
2018-01-23T05:03:48.770Z,99433.64
2018-01-23T05:06:16.302Z,99437.91
2018-01-23T05:08:43.834Z,99435.17
2018-01-23T05:11:11.713Z,99448.44
2018-01-23T05:13:39.431Z,99447.16
2018-01-23T05:16:07.150Z,99449.61
2018-01-23T05:18:35.180Z,99453.31
2018-01-23T05:21:02.887Z,99455.14
2018-01-23T05:23:30.605Z,99458.80
2018-01-23T05:25:58.181Z,99466.20
2018-01-23T05:28:25.715Z,99471.00
2018-01-23T05:30:53.258Z,99476.02
2018-01-23T05:33:20.866Z,99479.47
2018-01-23T05:35:48.405Z,99481.45
2018-01-23T05:38:16.212Z,99482.61
2018-01-23T05:40:43.822Z,99490.33
2018-01-23T05:43:11.349Z,99487.33
2018-01-23T05:45:38.972Z,99484.19
2018-01-23T05:48:06.553Z,99496.23
2018-01-23T05:50:34.126Z,99493.73
2018-01-23T05:53:01.818Z,99492.94
2018-01-23T05:55:29.429Z,99482.44
2018-01-23T05:57:56.986Z,99478.72
2018-01-23T06:00:24.798Z,99485.91
2018-01-23T06:02:52.385Z,99488.13
2018-01-23T06:05:20.108Z,99486.31
2018-01-23T06:07:47.635Z,99487.85
2018-01-23T06:10:15.443Z,99487.97
2018-01-23T06:12:43.161Z,99495.58
2018-01-23T06:15:10.800Z,99497.12
2018-01-23T06:17:38.493Z,99508.92
2018-01-23T06:20:06.119Z,99510.19
2018-01-23T06:22:33.662Z,99514.01
2018-01-23T06:25:01.247Z,99513.05
2018-01-23T06:27:28.871Z,99507.02
2018-01-23T06:29:56.406Z,99502.05
2018-01-23T06:32:23.997Z,99512.17
2018-01-23T06:34:51.729Z,99511.63
2018-01-23T06:37:19.272Z,99507.11
2018-01-23T06:39:46.914Z,99511.94
2018-01-23T06:42:14.579Z,99514.30
2018-01-23T06:44:42.186Z,99511.52
2018-01-23T06:47:10.012Z,99520.03
2018-01-23T06:49:37.542Z,99529.22
2018-01-23T06:52:05.250Z,99530.92
2018-01-23T06:54:32.850Z,99529.55
2018-01-23T06:57:00.397Z,99536.28
2018-01-23T06:59:28.867Z,99531.98
2018-01-23T07:01:56.446Z,99541.73
2018-01-23T07:04:24.242Z,99547.13
2018-01-23T07:06:51.858Z,99546.17
2018-01-23T07:09:19.463Z,99551.21
2018-01-23T07:11:47.094Z,99559.48
2018-01-23T07:14:14.741Z,99557.66
2018-01-23T07:16:42.443Z,99551.02
2018-01-23T07:19:09.982Z,99558.02
2018-01-23T07:21:37.516Z,99559.89
2018-01-23T07:24:05.102Z,99559.37
2018-01-23T07:26:32.832Z,99563.85
2018-01-23T07:29:00.518Z,99561.13
2018-01-23T07:31:28.244Z,99563.79
2018-01-23T07:33:55.811Z,99561.93
2018-01-23T07:36:23.346Z,99567.84
2018-01-23T07:38:51.020Z,99570.00
2018-01-23T07:41:18.562Z,99575.78
2018-01-23T07:43:46.093Z,99576.08
2018-01-23T07:46:13.685Z,99588.16
2018-01-23T07:48:41.222Z,99587.55
2018-01-23T07:51:08.983Z,99597.48
2018-01-23T07:53:36.568Z,99592.05
2018-01-23T07:56:04.734Z,99602.36
2018-01-23T07:58:32.286Z,99607.01
2018-01-23T08:00:59.877Z,99607.01
2018-01-23T08:03:27.414Z,99615.11
2018-01-23T08:05:54.976Z,99618.23
2018-01-23T08:08:22.553Z,99624.15
2018-01-23T08:10:50.086Z,99626.47
2018-01-23T08:13:17.621Z,99630.36
2018-01-23T08:15:45.210Z,99626.75
2018-01-23T08:18:12.738Z,99632.05
2018-01-23T08:20:40.306Z,99633.31
2018-01-23T08:23:07.882Z,99637.47
2018-01-23T08:25:35.419Z,99645.44
2018-01-23T08:28:02.954Z,99642.41
2018-01-23T08:30:30.654Z,99654.48
2018-01-23T08:32:58.238Z,99658.44
2018-01-23T08:35:25.910Z,99656.98
2018-01-23T08:37:53.490Z,99664.58
2018-01-23T08:40:21.127Z,99667.74
2018-01-23T08:42:48.735Z,99671.11
2018-01-23T08:45:16.340Z,99680.66
2018-01-23T08:47:43.938Z,99689.68
2018-01-23T08:50:11.482Z,99689.08
2018-01-23T08:52:39.058Z,99699.97
2018-01-23T08:55:06.605Z,99695.38
2018-01-23T08:57:34.195Z,99695.01
2018-01-23T09:00:05.095Z,99700.66
2018-01-23T09:02:32.665Z,99698.33
2018-01-23T09:05:00.202Z,99706.09
2018-01-23T09:07:27.846Z,99706.58
2018-01-23T09:09:55.395Z,99710.92
2018-01-23T09:12:23.176Z,99713.82
2018-01-23T09:14:50.787Z,99710.84
2018-01-23T09:17:18.334Z,99711.91
2018-01-23T09:19:46.130Z,99705.88
2018-01-23T09:22:14.042Z,99703.47
2018-01-23T09:24:41.578Z,99707.41
2018-01-23T09:27:09.123Z,99703.31
2018-01-23T09:29:36.698Z,99708.67
2018-01-23T09:32:04.311Z,99705.39
2018-01-23T09:34:31.842Z,99700.23
2018-01-23T09:36:59.450Z,99696.45
2018-01-23T09:39:26.988Z,99702.20
2018-01-23T09:41:54.522Z,99701.59
2018-01-23T09:44:22.106Z,99703.03
2018-01-23T09:46:49.644Z,99694.12
2018-01-23T09:49:17.194Z,99683.55
2018-01-23T09:51:44.796Z,99698.05
2018-01-23T09:54:12.329Z,99693.97
2018-01-23T09:56:40.096Z,99687.64
2018-01-23T09:59:07.685Z,99692.93
2018-01-23T10:01:35.262Z,99694.42
2018-01-23T10:04:02.898Z,99694.30
2018-01-23T10:06:30.482Z,99688.73
2018-01-23T10:08:58.075Z,99691.45
2018-01-23T10:11:25.606Z,99691.53
2018-01-23T10:13:53.190Z,99698.58
2018-01-23T10:16:20.734Z,99704.84
2018-01-23T10:18:48.354Z,99706.63
2018-01-23T10:21:15.982Z,99709.02
2018-01-23T10:23:43.580Z,99715.51
2018-01-23T10:26:11.118Z,99723.58
2018-01-23T10:28:38.840Z,99720.13
2018-01-23T10:31:06.644Z,99711.17
2018-01-23T10:33:34.200Z,99715.81
2018-01-23T10:36:02.080Z,99714.83
2018-01-23T10:38:29.712Z,99707.89
2018-01-23T10:40:57.286Z,99715.84
2018-01-23T10:43:25.693Z,99714.11
2018-01-23T10:45:53.234Z,99716.86
2018-01-23T10:48:20.790Z,99706.59
2018-01-23T10:50:48.494Z,99709.13
2018-01-23T10:53:16.111Z,99713.86
2018-01-23T10:55:43.825Z,99714.16
2018-01-23T10:58:11.400Z,99704.24
2018-01-23T11:00:44.480Z,99707.44
2018-01-23T11:03:12.298Z,99712.50
2018-01-23T11:05:39.886Z,99712.08
2018-01-23T11:08:07.477Z,99708.41
2018-01-23T11:10:35.022Z,99713.23
2018-01-23T11:13:02.822Z,99717.49
2018-01-23T11:15:30.378Z,99716.66
2018-01-23T11:17:57.910Z,99713.27
2018-01-23T11:20:25.586Z,99704.61
2018-01-23T11:22:53.122Z,99709.25
2018-01-23T11:25:20.658Z,99716.41
2018-01-23T11:27:48.235Z,99720.70
2018-01-23T11:30:15.779Z,99716.67
2018-01-23T11:32:43.512Z,99716.05
2018-01-23T11:35:11.086Z,99714.84
2018-01-23T11:37:38.617Z,99714.49
2018-01-23T11:40:06.158Z,99716.45
2018-01-23T11:42:33.738Z,99716.41
2018-01-23T11:45:01.289Z,99721.34
2018-01-23T11:47:28.834Z,99723.30
2018-01-23T11:49:56.635Z,99727.86
2018-01-23T11:52:24.178Z,99734.00
2018-01-23T11:54:51.734Z,99723.64
2018-01-23T11:57:19.383Z,99733.56
2018-01-23T11:59:46.928Z,99730.52
2018-01-23T12:02:14.509Z,99736.38
2018-01-23T12:04:42.243Z,99731.08
2018-01-23T12:07:09.782Z,99737.36
2018-01-23T12:09:37.390Z,99733.06
2018-01-23T12:12:05.136Z,99743.29
2018-01-23T12:14:32.670Z,99745.42
2018-01-23T12:17:00.393Z,99747.48
2018-01-23T12:19:27.970Z,99745.48
2018-01-23T12:21:55.514Z,99753.91
2018-01-23T12:24:23.055Z,99757.13
2018-01-23T12:26:50.650Z,99754.20
2018-01-23T12:29:18.185Z,99757.58
2018-01-23T12:31:45.937Z,99762.91
2018-01-23T12:34:13.756Z,99764.37
2018-01-23T12:36:41.474Z,99766.47
2018-01-23T12:39:09.030Z,99763.61
2018-01-23T12:41:36.715Z,99769.86
2018-01-23T12:44:04.293Z,99768.62
2018-01-23T12:46:31.825Z,99783.31
2018-01-23T12:48:59.397Z,99784.02
2018-01-23T12:51:26.935Z,99777.31
2018-01-23T12:53:54.462Z,99781.55
2018-01-23T12:56:22.038Z,99786.00
2018-01-23T12:58:49.578Z,99793.18
2018-01-23T13:01:17.259Z,99798.67
2018-01-23T13:03:44.866Z,99800.03
2018-01-23T13:06:12.421Z,99803.30
2018-01-23T13:08:39.954Z,99812.59
2018-01-23T13:11:07.562Z,99814.67
2018-01-23T13:13:35.094Z,99813.27
2018-01-23T13:16:02.626Z,99819.23
2018-01-23T13:18:30.262Z,99818.28
2018-01-23T13:20:57.799Z,99810.69
2018-01-23T13:23:25.455Z,99815.38
2018-01-23T13:25:53.034Z,99813.11
2018-01-23T13:28:20.647Z,99816.70
2018-01-23T13:30:48.173Z,99824.05
2018-01-23T13:33:15.764Z,99827.28
2018-01-23T13:35:43.303Z,99832.05
2018-01-23T13:38:10.923Z,99835.77
2018-01-23T13:40:38.626Z,99837.04
2018-01-23T13:43:06.358Z,99834.73
2018-01-23T13:45:33.975Z,99832.16
2018-01-23T13:48:01.558Z,99836.83
2018-01-23T13:50:29.098Z,99842.31
2018-01-23T13:52:56.774Z,99848.54
2018-01-23T13:55:24.642Z,99858.20
2018-01-23T13:57:52.233Z,99857.06
2018-01-23T14:00:19.777Z,99864.86
2018-01-23T14:02:47.377Z,99875.56
2018-01-23T14:05:14.966Z,99875.00
2018-01-23T14:07:42.501Z,99870.97
2018-01-23T14:10:10.249Z,99879.36
2018-01-23T14:12:37.792Z,99880.20
2018-01-23T14:15:05.343Z,99886.03
2018-01-23T14:17:32.925Z,99888.00
2018-01-23T14:20:00.486Z,99884.77
2018-01-23T14:22:28.014Z,99903.66
2018-01-23T14:24:55.602Z,99907.18
2018-01-23T14:27:23.139Z,99906.70
2018-01-23T14:29:50.688Z,99913.03
2018-01-23T14:32:18.290Z,99919.75
2018-01-23T14:34:45.835Z,99920.41
2018-01-23T14:37:13.444Z,99928.30
2018-01-23T14:39:41.050Z,99921.04
2018-01-23T14:42:08.670Z,99914.12
2018-01-23T14:44:36.210Z,99919.33
2018-01-23T14:47:03.790Z,99924.63
2018-01-23T14:49:31.326Z,99925.78
2018-01-23T14:51:58.866Z,99928.56
2018-01-23T14:54:26.537Z,99935.92
2018-01-23T14:56:54.075Z,99946.20
2018-01-23T14:59:21.605Z,99943.34
2018-01-23T15:01:49.210Z,99949.45
2018-01-23T15:04:16.938Z,99956.88
2018-01-23T15:06:44.504Z,99960.34
2018-01-23T15:09:12.077Z,99959.62
2018-01-23T15:11:39.692Z,99970.86
2018-01-23T15:14:07.223Z,99970.64
2018-01-23T15:16:34.802Z,99969.70
2018-01-23T15:19:02.334Z,99980.25
2018-01-23T15:21:29.857Z,99981.30
2018-01-23T15:23:57.582Z,99992.59
2018-01-23T15:26:25.117Z,99992.11
2018-01-23T15:28:52.822Z,99995.03
2018-01-23T15:31:20.423Z,100002.95
2018-01-23T15:33:48.152Z,100006.13
2018-01-23T15:36:15.701Z,100012.60
2018-01-23T15:38:43.280Z,100011.48
2018-01-23T15:41:10.873Z,100021.70
2018-01-23T15:43:38.424Z,100031.37
2018-01-23T15:46:06.239Z,100031.92
2018-01-23T15:48:33.774Z,100033.31
2018-01-23T15:51:01.476Z,100039.12
2018-01-23T15:53:29.099Z,100042.41
2018-01-23T15:55:56.812Z,100042.50
2018-01-23T15:58:24.358Z,100052.30
2018-01-23T16:00:51.963Z,100053.02
2018-01-23T16:03:19.514Z,100052.62
2018-01-23T16:05:47.078Z,100055.15
2018-01-23T16:08:14.693Z,100060.30
2018-01-23T16:10:42.418Z,100054.72
2018-01-23T16:13:10.147Z,100057.70
2018-01-23T16:15:37.846Z,100057.08
2018-01-23T16:18:05.464Z,100051.88
2018-01-23T16:20:33.190Z,100062.55
2018-01-23T16:23:00.908Z,100068.13
2018-01-23T16:25:28.457Z,100071.13
2018-01-23T16:27:56.002Z,100077.46
2018-01-23T16:30:23.614Z,100080.03
2018-01-23T16:32:51.287Z,100083.81
2018-01-23T16:35:18.831Z,100085.61
2018-01-23T16:37:46.520Z,100090.17
2018-01-23T16:40:14.262Z,100097.94
2018-01-23T16:42:41.812Z,100101.02
2018-01-23T16:45:09.410Z,100103.27
2018-01-23T16:47:37.199Z,100109.21
2018-01-23T16:50:04.915Z,100102.67
2018-01-23T16:52:32.723Z,100105.23
2018-01-23T16:55:00.332Z,100115.89
2018-01-23T16:57:27.862Z,100116.92
2018-01-23T16:59:55.447Z,100122.23
2018-01-23T17:02:23.002Z,100126.45
2018-01-23T17:04:50.602Z,100134.26
2018-01-23T17:07:18.225Z,100142.58
2018-01-23T17:09:45.767Z,100144.99
2018-01-23T17:12:13.648Z,100142.22
2018-01-23T17:14:41.186Z,100147.24
2018-01-23T17:17:08.903Z,100159.52
2018-01-23T17:19:36.481Z,100157.01
2018-01-23T17:22:04.033Z,100157.95
2018-01-23T17:24:31.586Z,100161.78
2018-01-23T17:26:59.130Z,100162.86
2018-01-23T17:29:26.725Z,100158.80
2018-01-23T17:31:54.270Z,100163.96
2018-01-23T17:34:21.858Z,100174.28
2018-01-23T17:36:49.550Z,100177.27
2018-01-23T17:39:17.089Z,100181.48
2018-01-23T17:41:44.782Z,100179.83
2018-01-23T17:44:12.334Z,100180.80
2018-01-23T17:46:40.114Z,100188.31
2018-01-23T17:49:07.833Z,100183.27
2018-01-23T17:51:35.380Z,100187.89
2018-01-23T17:54:02.958Z,100190.99
2018-01-23T17:56:30.490Z,100198.28
2018-01-23T17:58:58.024Z,100192.66
2018-01-23T18:01:25.586Z,100197.55
2018-01-23T18:03:53.134Z,100203.36
2018-01-23T18:06:20.734Z,100202.72
2018-01-23T18:08:48.275Z,100212.56
2018-01-23T18:11:15.840Z,100203.45
2018-01-23T18:13:43.388Z,100203.19
2018-01-23T18:16:11.118Z,100206.85
2018-01-23T18:18:38.690Z,100205.84
2018-01-23T18:21:06.247Z,100208.22
2018-01-23T18:23:33.786Z,100215.80
2018-01-23T18:26:01.335Z,100221.31
2018-01-23T18:28:28.870Z,100219.34
2018-01-23T18:30:56.481Z,100226.50
2018-01-23T18:33:24.030Z,100231.69
2018-01-23T18:35:51.569Z,100226.08
2018-01-23T18:38:19.477Z,100227.77
2018-01-23T18:40:47.050Z,100232.36
2018-01-23T18:43:14.678Z,100235.73
2018-01-23T18:45:42.234Z,100230.19
2018-01-23T18:48:09.777Z,100233.09
2018-01-23T18:50:37.333Z,100234.75
2018-01-23T18:53:04.906Z,100235.22
2018-01-23T18:55:32.478Z,100242.20
2018-01-23T18:58:00.091Z,100249.02
2018-01-23T19:00:27.706Z,100248.59
2018-01-23T19:02:55.250Z,100252.58
2018-01-23T19:05:22.802Z,100253.08
2018-01-23T19:07:50.389Z,100258.47
2018-01-23T19:10:17.966Z,100261.69
2018-01-23T19:12:45.519Z,100268.03
2018-01-23T19:15:13.071Z,100271.56
2018-01-23T19:17:40.630Z,100268.65
2018-01-23T19:20:08.230Z,100278.38
2018-01-23T19:22:35.786Z,100275.66
2018-01-23T19:25:03.353Z,100278.77
2018-01-23T19:27:30.960Z,100285.00
2018-01-23T19:29:58.498Z,100285.04
2018-01-23T19:32:26.074Z,100284.66
2018-01-23T19:34:53.607Z,100293.56
2018-01-23T19:37:21.186Z,100286.55
2018-01-23T19:39:48.850Z,100300.45
2018-01-23T19:42:16.578Z,100312.03
2018-01-23T19:44:44.217Z,100311.61
2018-01-23T19:47:11.851Z,100322.30
2018-01-23T19:49:39.386Z,100327.69
2018-01-23T19:52:06.934Z,100327.45
2018-01-23T19:54:34.478Z,100333.84
2018-01-23T19:57:02.283Z,100338.42
2018-01-23T19:59:29.817Z,100335.05
2018-01-23T20:01:57.352Z,100338.06
2018-01-23T20:04:24.899Z,100339.70
2018-01-23T20:06:52.559Z,100346.75
2018-01-23T20:09:20.279Z,100337.80
2018-01-23T20:11:47.989Z,100343.70
2018-01-23T20:14:15.595Z,100335.94
2018-01-23T20:16:43.134Z,100346.27
2018-01-23T20:19:10.693Z,100350.95
2018-01-23T20:21:38.957Z,100356.18
2018-01-23T20:24:06.586Z,100359.09
2018-01-23T20:26:34.298Z,100354.41
2018-01-23T20:29:02.520Z,100358.73
2018-01-23T20:31:30.153Z,100357.92
2018-01-23T20:33:57.758Z,100363.00
2018-01-23T20:36:25.350Z,100362.75
2018-01-23T20:38:52.982Z,100375.98
2018-01-23T20:41:20.534Z,100374.75
2018-01-23T20:43:48.062Z,100375.81
2018-01-23T20:46:15.654Z,100385.86
2018-01-23T20:48:43.195Z,100388.45
2018-01-23T20:51:10.981Z,100388.45
2018-01-23T20:53:38.585Z,100391.46
2018-01-23T20:56:06.154Z,100393.30
2018-01-23T20:58:33.753Z,100401.85
2018-01-23T21:01:01.319Z,100399.47
2018-01-23T21:03:29.045Z,100410.05
2018-01-23T21:05:56.658Z,100410.17
2018-01-23T21:08:24.237Z,100410.73
2018-01-23T21:10:51.845Z,100413.31
2018-01-23T21:13:19.383Z,100414.56
2018-01-23T21:15:47.159Z,100418.30
2018-01-23T21:18:14.714Z,100417.91
2018-01-23T21:20:42.253Z,100423.11
2018-01-23T21:23:09.844Z,100420.52
2018-01-23T21:25:37.530Z,100429.00
2018-01-23T21:28:05.101Z,100423.08
2018-01-23T21:30:32.864Z,100426.91
2018-01-23T21:33:00.418Z,100420.88
2018-01-23T21:35:28.200Z,100426.13
2018-01-23T21:37:55.822Z,100429.16
2018-01-23T21:40:23.415Z,100432.93
2018-01-23T21:42:51.054Z,100433.00
2018-01-23T21:45:18.775Z,100430.02
2018-01-23T21:47:46.864Z,100430.08
2018-01-23T21:50:14.501Z,100429.66
2018-01-23T21:52:42.058Z,100427.91
2018-01-23T21:55:09.637Z,100428.73
2018-01-23T21:57:38.166Z,100433.94
2018-01-23T22:00:06.184Z,100433.55
2018-01-23T22:02:33.734Z,100437.02
2018-01-23T22:05:01.274Z,100438.38
2018-01-23T22:07:28.939Z,100446.86
2018-01-23T22:09:56.755Z,100451.97
2018-01-23T22:12:24.675Z,100453.67
2018-01-23T22:14:52.218Z,100460.91
2018-01-23T22:17:19.916Z,100461.75
2018-01-23T22:19:47.628Z,100467.72
2018-01-23T22:22:15.202Z,100466.95
2018-01-23T22:24:42.964Z,100466.50
2018-01-23T22:27:10.505Z,100463.95
2018-01-23T22:29:38.203Z,100459.66
2018-01-23T22:32:06.023Z,100463.91
2018-01-23T22:34:33.557Z,100469.93
2018-01-23T22:37:01.146Z,100470.78
2018-01-23T22:39:28.689Z,100467.47
2018-01-23T22:41:56.217Z,100467.50
2018-01-23T22:44:23.783Z,100461.17
2018-01-23T22:46:51.331Z,100468.48
2018-01-23T22:49:19.125Z,100474.47
2018-01-23T22:51:46.702Z,100475.03
2018-01-23T22:54:14.246Z,100481.50
2018-01-23T22:56:41.858Z,100467.48
2018-01-23T22:59:09.470Z,100473.95
2018-01-23T23:01:37.086Z,100477.75
2018-01-23T23:04:04.646Z,100484.02
2018-01-23T23:06:32.193Z,100478.09
2018-01-23T23:08:59.985Z,100480.22
2018-01-23T23:11:27.777Z,100486.12
2018-01-23T23:13:55.506Z,100487.38
2018-01-23T23:16:23.239Z,100490.01
2018-01-23T23:18:50.794Z,100492.14
2018-01-23T23:21:18.352Z,100490.48
2018-01-23T23:23:46.094Z,100489.61
2018-01-23T23:26:13.712Z,100493.83
2018-01-23T23:28:41.269Z,100492.91
2018-01-23T23:31:08.837Z,100488.25
2018-01-23T23:33:36.761Z,100493.14
2018-01-23T23:36:04.378Z,100495.35
2018-01-23T23:38:32.179Z,100502.50
2018-01-23T23:40:59.828Z,100511.01
2018-01-23T23:43:27.539Z,100513.96
2018-01-23T23:45:55.146Z,100523.72
2018-01-23T23:48:22.873Z,100532.65
2018-01-23T23:50:50.594Z,100527.55
2018-01-23T23:53:18.141Z,100526.66
2018-01-23T23:55:45.830Z,100530.95
2018-01-23T23:58:13.647Z,100537.28
